Time;durP1;ratioP1;P1;durP2;ratioP2;P2;SDS_P1;SDS_P2;PMS_P1;PMS_P2;Temp;Humidity;BMP_temperature;BMP_pressure;BME280_temperature;BME280_humidity;BME280_pressure;Samples;Min_cycle;Max_cycle;Signal;HPM_P1;HPM_P2
2022/01/03 00:02:26;;;;;;;10.52;1.58;;;;;;;7.49;100.00;100602.16;4906662;28;20035;-76
2022/01/03 00:04:52;;;;;;;9.60;1.58;;;;;;;7.55;100.00;100598.69;4906850;28;20062;-76
2022/01/03 00:07:17;;;;;;;14.13;2.53;;;;;;;7.58;100.00;100600.94;4909427;28;20043;-77
2022/01/03 00:09:43;;;;;;;13.77;1.80;;;;;;;7.63;100.00;100604.69;4910136;28;20039;-76
2022/01/03 00:12:09;;;;;;;14.55;2.22;;;;;;;7.70;100.00;100607.41;4909557;28;20038;-76
2022/01/03 00:14:35;;;;;;;17.02;2.33;;;;;;;7.71;100.00;100606.38;4926029;28;20431;-77
2022/01/03 00:17:00;;;;;;;15.93;2.42;;;;;;;7.75;100.00;100610.31;4909594;28;20055;-77
2022/01/03 00:19:26;;;;;;;19.23;2.70;;;;;;;7.79;100.00;100614.28;4924078;28;20027;-77
2022/01/03 00:21:57;;;;;;;14.73;2.65;;;;;;;7.88;100.00;100618.41;4894128;28;22199;-76
2022/01/03 00:24:34;;;;;;;13.88;3.13;;;;;;;7.95;100.00;100614.94;4927508;28;20033;-77
2022/01/03 00:27:05;;;;;;;17.10;2.80;;;;;;;8.04;100.00;100611.06;4909054;28;20039;-77
2022/01/03 00:29:43;;;;;;;12.27;3.08;;;;;;;8.09;100.00;100614.78;4916582;28;20085;-77
2022/01/03 00:32:09;;;;;;;14.40;3.83;;;;;;;8.16;100.00;100619.34;4927294;28;20054;-75
2022/01/03 00:34:36;;;;;;;18.70;3.78;;;;;;;8.19;100.00;100613.56;4914038;28;20046;-77
2022/01/03 00:37:02;;;;;;;17.15;2.97;;;;;;;8.27;100.00;100627.59;4928225;28;20168;-77
2022/01/03 00:39:31;;;;;;;20.77;4.35;;;;;;;8.38;100.00;100617.34;4921792;28;20117;-74
2022/01/03 00:41:58;;;;;;;18.67;2.70;;;;;;;8.43;100.00;100625.63;4916955;28;20153;-75
2022/01/03 00:44:24;;;;;;;22.65;3.45;;;;;;;8.47;100.00;100632.25;4894304;28;20037;-76
2022/01/03 00:46:52;;;;;;;24.25;4.22;;;;;;;8.53;100.00;100620.66;4913245;28;20109;-75
2022/01/03 00:49:18;;;;;;;23.10;3.97;;;;;;;8.62;100.00;100624.81;4924818;28;20058;-75
2022/01/03 00:51:44;;;;;;;30.27;3.55;;;;;;;8.66;100.00;100628.72;4920340;28;20054;-75
2022/01/03 00:54:09;;;;;;;19.55;3.47;;;;;;;8.68;100.00;100621.31;4899223;28;20063;-75
2022/01/03 00:56:36;;;;;;;22.38;3.13;;;;;;;8.76;100.00;100634.53;4926073;28;20023;-74
2022/01/03 00:59:09;;;;;;;15.63;3.00;;;;;;;8.82;100.00;100620.28;4910255;28;20055;-75
2022/01/03 01:01:47;;;;;;;22.58;3.10;;;;;;;8.86;100.00;100630.63;4910920;28;20097;-76
2022/01/03 01:04:13;;;;;;;26.70;3.85;;;;;;;8.89;100.00;100640.94;4927192;28;20050;-74
2022/01/03 01:06:39;;;;;;;21.38;3.42;;;;;;;8.89;100.00;100640.94;4928206;28;20031;-74
2022/01/03 01:09:06;;;;;;;37.47;4.55;;;;;;;8.88;100.00;100631.22;4927541;28;20074;-74
2022/01/03 01:11:32;;;;;;;26.65;3.47;;;;;;;8.88;100.00;100632.06;4916251;28;20518;-74
2022/01/03 01:13:58;;;;;;;23.15;3.38;;;;;;;8.88;100.00;100647.34;4927982;28;20039;-75
2022/01/03 01:16:25;;;;;;;23.02;3.45;;;;;;;8.93;100.00;100647.56;4928168;28;20062;-75
2022/01/03 01:18:51;;;;;;;24.75;4.10;;;;;;;8.93;100.00;100644.88;4911556;28;20031;-76
2022/01/03 01:21:17;;;;;;;36.00;5.15;;;;;;;8.90;100.00;100642.59;4923000;28;20578;-76
2022/01/03 01:23:43;;;;;;;27.48;4.13;;;;;;;8.90;100.00;100653.34;4917781;28;20069;-76
2022/01/03 01:28:54;;;;;;;27.10;4.55;;;;;;;8.94;100.00;100659.94;4910393;28;21796;-76
2022/01/03 01:31:23;;;;;;;31.95;3.65;;;;;;;8.95;100.00;100649.00;4926790;28;20035;-76
2022/01/03 01:33:54;;;;;;;28.38;4.60;;;;;;;8.97;100.00;100665.72;4919208;28;20082;-75
2022/01/03 01:36:26;;;;;;;33.47;4.10;;;;;;;8.99;100.00;100652.94;4926135;28;20079;-75
2022/01/03 01:38:52;;;;;;;40.75;4.22;;;;;;;8.93;100.00;100658.31;4927771;28;20038;-75
2022/01/03 01:41:19;;;;;;;28.58;4.05;;;;;;;8.97;100.00;100659.53;4911819;28;20499;-74
2022/01/03 01:43:46;;;;;;;32.58;4.35;;;;;;;8.90;100.00;100653.34;4929525;28;20071;-75
2022/01/03 01:46:20;;;;;;;26.67;3.97;;;;;;;8.94;100.00;100643.81;4911168;28;20054;-75
2022/01/03 01:48:48;;;;;;;28.98;5.03;;;;;;;8.97;100.00;100656.84;4942740;28;20693;-74
2022/01/03 01:51:16;;;;;;;25.33;4.53;;;;;;;8.95;100.00;100661.59;4923141;28;20042;-74
2022/01/03 01:53:47;;;;;;;30.33;4.65;;;;;;;8.91;100.00;100663.88;4914463;28;20066;-75
2022/01/03 01:56:15;;;;;;;17.13;3.95;;;;;;;8.91;100.00;100654.97;4908602;28;20138;-74
2022/01/03 01:59:12;;;;;;;26.60;3.80;;;;;;;8.91;100.00;100661.19;4926495;28;20042;-74
2022/01/03 02:01:51;;;;;;;33.13;4.25;;;;;;;8.93;100.00;100655.63;4925545;28;20112;-75
2022/01/03 02:04:42;;;;;;;32.22;4.55;;;;;;;8.96;100.00;100652.53;4910824;28;20533;-76
2022/01/03 02:07:49;;;;;;;28.75;4.45;;;;;;;8.97;100.00;100662.22;4926682;28;20050;-76
2022/01/03 02:10:15;;;;;;;25.50;4.00;;;;;;;8.94;100.00;100668.00;4910688;28;20043;-76
2022/01/03 02:12:43;;;;;;;32.58;4.93;;;;;;;8.96;100.00;100666.78;4925847;28;20074;-75
2022/01/03 02:15:15;;;;;;;29.55;5.10;;;;;;;9.03;100.00;100669.47;4926390;28;23717;-75
2022/01/03 02:17:44;;;;;;;31.58;4.57;;;;;;;9.09;100.00;100679.41;4911349;28;20051;-76
2022/01/03 02:20:20;;;;;;;27.10;4.15;;;;;;;9.08;100.00;100653.53;4925263;28;20042;-74
2022/01/03 02:22:46;;;;;;;35.47;4.90;;;;;;;9.12;100.00;100670.88;4910015;28;20043;-74
2022/01/03 02:25:13;;;;;;;28.95;4.28;;;;;;;9.11;100.00;100671.94;4924415;28;20039;-74
2022/01/03 02:27:39;;;;;;;28.67;4.32;;;;;;;9.14;100.00;100674.22;4922430;28;20038;-74
2022/01/03 02:30:12;;;;;;;37.33;4.50;;;;;;;9.12;100.00;100668.22;4899373;28;20061;-74
2022/01/03 02:32:38;;;;;;;32.50;4.78;;;;;;;9.16;100.00;100679.38;4925276;28;20035;-74
2022/01/03 02:35:04;;;;;;;31.55;4.18;;;;;;;9.14;100.00;100673.38;4908414;28;23038;-76
2022/01/03 02:37:30;;;;;;;32.88;4.90;;;;;;;9.16;100.00;100672.16;4926547;28;20153;-75
2022/01/03 02:39:56;;;;;;;25.25;3.75;;;;;;;9.15;100.00;100658.91;4906105;28;20066;-76
2022/01/03 02:42:25;;;;;;;26.42;4.35;;;;;;;9.15;100.00;100667.78;4919436;28;22805;-76
2022/01/03 02:45:11;;;;;;;31.05;5.40;;;;;;;9.17;100.00;100672.97;4933244;28;20039;-75
2022/01/03 02:47:38;;;;;;;31.00;5.10;;;;;;;9.16;100.00;100672.16;4921217;28;20059;-73
2022/01/03 02:50:06;;;;;;;31.80;5.53;;;;;;;9.15;100.00;100667.78;4917848;28;20118;-74
2022/01/03 02:52:33;;;;;;;28.83;4.25;;;;;;;9.15;100.00;100659.72;4923980;28;22546;-74
2022/01/03 02:55:00;;;;;;;31.13;4.40;;;;;;;9.13;100.00;100661.81;4926465;28;20027;-74
2022/01/03 02:57:25;;;;;;;36.08;5.20;;;;;;;9.14;100.00;100673.38;4925346;28;20046;-75
2022/01/03 02:59:55;;;;;;;25.92;4.22;;;;;;;9.11;100.00;100671.13;4916704;28;20197;-75
2022/01/03 03:02:22;;;;;;;30.60;4.53;;;;;;;9.11;100.00;100671.94;4929148;28;20038;-76
2022/01/03 03:04:59;;;;;;;28.48;5.28;;;;;;;9.02;100.00;100673.16;4926992;28;23823;-76
2022/01/03 03:07:26;;;;;;;23.83;3.92;;;;;;;9.00;100.00;100661.81;4924158;28;20035;-76
2022/01/03 03:09:52;;;;;;;30.77;4.15;;;;;;;8.99;100.00;100668.22;4919077;28;20119;-73
2022/01/03 03:12:18;;;;;;;28.77;4.90;;;;;;;8.96;100.00;100676.69;4930975;28;20104;-74
2022/01/03 03:14:43;;;;;;;33.65;5.80;;;;;;;9.00;100.00;100675.25;4939168;28;20037;-73
2022/01/03 03:17:09;;;;;;;24.10;5.10;;;;;;;8.98;100.00;100671.94;4905556;28;20055;-73
2022/01/03 03:20:06;;;;;;;27.88;5.03;;;;;;;8.98;100.00;100678.13;4908210;28;20053;-73
2022/01/03 03:22:32;;;;;;;30.05;5.78;;;;;;;8.98;100.00;100677.31;4909217;28;20051;-75
2022/01/03 03:25:03;;;;;;;30.67;4.82;;;;;;;8.95;100.00;100656.22;4924374;28;20026;-75
2022/01/03 03:27:29;;;;;;;39.67;5.35;;;;;;;8.92;100.00;100673.59;4924947;28;20443;-76
2022/01/03 03:29:55;;;;;;;34.78;4.60;;;;;;;8.86;100.00;100663.66;4893100;28;20070;-73
2022/01/03 03:32:21;;;;;;;34.42;4.95;;;;;;;8.83;100.00;100664.91;4923770;28;20031;-74
2022/01/03 03:34:47;;;;;;;28.17;5.22;;;;;;;8.84;100.00;100666.56;4909440;28;20043;-74
2022/01/03 03:37:14;;;;;;;29.05;4.85;;;;;;;8.78;100.00;100667.38;4924595;28;22651;-75
2022/01/03 03:39:41;;;;;;;27.02;4.53;;;;;;;8.73;100.00;100675.22;4925949;28;20105;-75
2022/01/03 03:42:07;;;;;;;40.33;5.82;;;;;;;8.69;100.00;100663.25;4894020;28;20061;-75
2022/01/03 03:44:34;;;;;;;36.10;4.95;;;;;;;8.61;100.00;100663.44;4923115;28;20701;-74
2022/01/03 03:47:00;;;;;;;29.38;5.20;;;;;;;8.58;100.00;100663.84;4908051;28;20066;-75
2022/01/03 03:49:25;;;;;;;32.63;5.43;;;;;;;8.54;100.00;100670.66;4924157;28;20415;-75
2022/01/03 03:51:51;;;;;;;31.45;5.57;;;;;;;8.46;100.00;100670.81;4923222;28;20035;-73
2022/01/03 03:54:16;;;;;;;43.72;6.22;;;;;;;8.44;100.00;100667.53;4909256;28;20047;-74
2022/01/03 03:56:42;;;;;;;29.52;5.30;;;;;;;8.41;100.00;100671.44;4923180;28;20062;-74
2022/01/03 03:59:07;;;;;;;31.13;4.50;;;;;;;8.44;100.00;100670.22;4907099;28;20050;-74
2022/01/03 04:01:33;;;;;;;33.08;6.28;;;;;;;8.45;100.00;100666.50;4925382;28;20110;-74
2022/01/03 04:03:58;;;;;;;39.28;5.88;;;;;;;8.40;100.00;100671.66;4921530;28;20031;-74
2022/01/03 04:06:24;;;;;;;30.98;4.68;;;;;;;8.39;100.00;100651.19;4909311;28;20565;-74
2022/01/03 04:08:49;;;;;;;30.10;5.05;;;;;;;8.42;100.00;100666.91;4922833;28;20042;-75
2022/01/03 04:11:14;;;;;;;35.78;5.07;;;;;;;8.40;100.00;100668.97;4907379;28;20047;-75
2022/01/03 04:13:40;;;;;;;38.28;5.47;;;;;;;8.39;100.00;100656.56;4923570;28;20041;-73
2022/01/03 04:16:06;;;;;;;36.15;6.10;;;;;;;8.42;100.00;100664.22;4904312;28;20088;-74
2022/01/03 04:18:32;;;;;;;38.22;5.65;;;;;;;8.35;100.00;100650.75;4911792;28;20090;-74
2022/01/03 04:20:58;;;;;;;31.20;4.95;;;;;;;8.35;100.00;100654.28;4925496;28;20132;-76
2022/01/03 04:23:23;;;;;;;28.17;4.93;;;;;;;8.34;100.00;100647.25;4908387;28;21300;-74
2022/01/03 04:25:50;;;;;;;34.25;4.82;;;;;;;8.29;100.00;100654.25;4923666;28;20480;-74
2022/01/03 04:28:16;;;;;;;38.42;5.68;;;;;;;8.25;100.00;100656.53;4918529;28;20097;-73
2022/01/03 04:30:41;;;;;;;35.20;4.57;;;;;;;8.34;100.00;100649.09;4913304;28;20043;-74
2022/01/03 04:33:07;;;;;;;35.60;6.30;;;;;;;8.46;100.00;100658.25;4926657;28;20054;-74
2022/01/03 04:35:32;;;;;;;40.92;5.07;;;;;;;8.52;100.00;100651.22;4910693;28;20046;-74
2022/01/03 04:37:58;;;;;;;28.88;4.80;;;;;;;8.52;100.00;100652.06;4925620;28;20051;-73
2022/01/03 04:40:23;;;;;;;34.80;6.15;;;;;;;8.56;100.00;100652.47;4920235;28;20049;-74
2022/01/03 04:42:51;;;;;;;34.30;6.30;;;;;;;8.54;100.00;100644.63;4914011;28;20055;-77
2022/01/03 04:45:19;;;;;;;40.97;5.45;;;;;;;8.59;100.00;100668.19;4925479;28;20470;-75
2022/01/03 04:47:44;;;;;;;36.70;5.72;;;;;;;8.57;100.00;100646.91;4907213;28;20732;-75
2022/01/03 04:50:10;;;;;;;38.38;5.97;;;;;;;8.52;100.00;100652.06;4924557;28;20034;-74
2022/01/03 04:52:35;;;;;;;37.47;6.70;;;;;;;8.50;100.00;100664.06;4916757;28;20047;-75
2022/01/03 04:55:01;;;;;;;45.60;6.50;;;;;;;8.46;100.00;100660.09;4914737;28;20059;-75
2022/01/03 04:57:27;;;;;;;35.38;5.60;;;;;;;8.51;100.00;100660.31;4921820;28;20042;-74
2022/01/03 04:59:52;;;;;;;39.30;6.05;;;;;;;8.47;100.00;100649.16;4909815;28;20050;-74
2022/01/03 05:02:18;;;;;;;49.40;6.75;;;;;;;8.52;100.00;100664.66;4924587;28;20547;-74
2022/01/03 05:04:43;;;;;;;31.48;5.40;;;;;;;8.59;100.00;100657.44;4901979;28;20047;-75
2022/01/03 05:07:09;;;;;;;36.42;6.55;;;;;;;8.61;100.00;100660.75;4914356;28;20051;-72
2022/01/03 05:09:35;;;;;;;33.47;5.38;;;;;;;8.63;100.00;100658.69;4939609;28;20483;-74
2022/01/03 05:12:00;;;;;;;40.15;5.45;;;;;;;8.63;100.00;100656.00;4921624;28;20060;-74
2022/01/03 05:14:26;;;;;;;41.22;6.07;;;;;;;8.62;100.00;100667.78;4926037;28;20037;-74
2022/01/03 05:16:52;;;;;;;40.33;6.18;;;;;;;8.60;100.00;100661.78;4921034;28;20051;-74
2022/01/03 05:19:18;;;;;;;39.08;5.85;;;;;;;8.56;100.00;100679.31;4918251;28;20395;-74
2022/01/03 05:21:46;;;;;;;41.95;6.13;;;;;;;8.54;100.00;100649.19;4926398;28;20041;-74
2022/01/03 05:24:12;;;;;;;37.45;7.13;;;;;;;8.54;100.00;100659.91;4914889;28;20190;-75
2022/01/03 05:26:37;;;;;;;42.33;6.28;;;;;;;8.50;100.00;100658.69;4928569;28;20043;-74
2022/01/03 05:29:03;;;;;;;41.08;7.43;;;;;;;8.47;100.00;100653.72;4897347;28;20146;-74
2022/01/03 05:31:28;;;;;;;39.97;5.50;;;;;;;8.43;100.00;100666.72;4927334;28;20475;-74
2022/01/03 05:33:54;;;;;;;44.90;6.72;;;;;;;8.41;100.00;100649.16;4927260;28;20097;-74
2022/01/03 05:36:20;;;;;;;44.72;6.47;;;;;;;8.37;100.00;100648.69;4907691;28;20048;-74
2022/01/03 05:38:45;;;;;;;38.50;5.97;;;;;;;8.31;100.00;100653.00;4925770;28;20690;-75
2022/01/03 05:41:11;;;;;;;45.60;6.68;;;;;;;8.27;100.00;100650.94;4910506;28;20059;-73
2022/01/03 05:43:36;;;;;;;28.95;5.50;;;;;;;8.21;100.00;100655.25;4926523;28;20041;-73
2022/01/03 05:46:02;;;;;;;46.15;6.45;;;;;;;8.19;100.00;100637.72;4927093;28;20031;-74
2022/01/03 05:48:28;;;;;;;49.70;7.15;;;;;;;8.22;100.00;100646.19;4913108;28;20074;-75
2022/01/03 05:50:54;;;;;;;46.25;6.45;;;;;;;8.19;100.00;100651.97;4926801;28;20065;-75
2022/01/03 05:53:19;;;;;;;37.25;6.07;;;;;;;8.20;100.00;100648.22;4912492;28;20086;-75
2022/01/03 05:55:46;;;;;;;48.17;6.53;;;;;;;8.21;100.00;100654.41;4925859;28;20152;-74
2022/01/03 05:58:14;;;;;;;40.53;7.03;;;;;;;8.26;100.00;100651.97;4909397;28;20043;-73
2022/01/03 06:00:40;;;;;;;42.92;6.57;;;;;;;8.31;100.00;100647.63;4895766;28;20050;-73
2022/01/03 06:03:05;;;;;;;44.90;7.10;;;;;;;8.35;100.00;100651.59;4926619;28;20039;-74
2022/01/03 06:05:53;;;;;;;45.95;5.93;;;;;;;8.40;100.00;100637.59;4909677;28;20047;-74
2022/01/03 06:08:16;;;;;;;39.30;6.85;;;;;;;8.44;100.00;100605.81;4925605;28;20268;-74
2022/01/03 06:10:42;;;;;;;53.38;7.43;;;;;;;8.45;100.00;100643.16;4920924;28;20408;-73
2022/01/03 06:13:08;;;;;;;46.03;6.63;;;;;;;8.47;100.00;100642.97;4918247;28;20482;-73
2022/01/03 06:15:36;;;;;;;53.45;7.63;;;;;;;8.39;100.00;100644.00;4926661;28;20089;-73
2022/01/03 06:18:02;;;;;;;50.00;6.75;;;;;;;8.39;100.00;100627.91;4910825;28;20720;-73
2022/01/03 06:20:28;;;;;;;38.45;6.57;;;;;;;8.46;100.00;100635.94;4926373;28;20042;-73
2022/01/03 06:22:53;;;;;;;43.03;6.80;;;;;;;8.46;100.00;100630.56;4921726;28;20106;-72
2022/01/03 06:25:18;;;;;;;40.38;6.03;;;;;;;8.44;100.00;100624.59;4919173;28;20043;-76
2022/01/03 06:27:44;;;;;;;35.42;6.63;;;;;;;8.48;100.00;100620.47;4927850;28;20054;-73
2022/01/03 06:30:12;;;;;;;49.20;6.40;;;;;;;8.43;100.00;100628.31;4910939;28;20051;-73
2022/01/03 06:32:37;;;;;;;49.15;7.45;;;;;;;8.45;100.00;100618.19;4927915;28;20046;-74
2022/01/03 06:35:04;;;;;;;49.20;6.97;;;;;;;8.42;100.00;100619.41;4921074;28;20128;-73
2022/01/03 06:37:30;;;;;;;52.15;6.60;;;;;;;8.38;100.00;100609.28;4916835;28;20081;-75
2022/01/03 06:39:55;;;;;;;41.10;6.97;;;;;;;8.34;100.00;100612.34;4940583;28;20640;-75
2022/01/03 06:42:21;;;;;;;53.95;7.10;;;;;;;8.31;100.00;100615.44;4909946;28;20063;-75
2022/01/03 06:44:48;;;;;;;61.35;8.13;;;;;;;8.36;100.00;100615.66;4924878;28;20035;-75
2022/01/03 06:47:15;;;;;;;54.08;9.10;;;;;;;8.43;100.00;100614.91;4923480;28;20212;-73
2022/01/03 06:49:40;;;;;;;44.65;7.20;;;;;;;8.49;100.00;100622.94;4915288;28;20039;-75
2022/01/03 06:52:06;;;;;;;38.95;6.72;;;;;;;8.55;100.00;100605.19;4925494;28;20813;-73
2022/01/03 06:54:33;;;;;;;46.45;7.85;;;;;;;8.51;100.00;100607.47;4909759;28;20050;-74
2022/01/03 06:56:59;;;;;;;49.50;7.97;;;;;;;8.53;100.00;100602.72;4925240;28;20038;-74
2022/01/03 06:59:24;;;;;;;47.55;7.93;;;;;;;8.48;100.00;100607.03;4916954;28;20046;-73
2022/01/03 07:01:50;;;;;;;55.92;7.78;;;;;;;8.39;100.00;100614.47;4915956;28;20555;-74
2022/01/03 07:04:16;;;;;;;44.53;6.57;;;;;;;8.35;100.00;100599.75;4924444;28;20043;-74
2022/01/03 07:06:41;;;;;;;48.22;7.10;;;;;;;8.25;100.00;100608.22;4908510;28;20055;-73
2022/01/03 07:09:07;;;;;;;36.88;7.05;;;;;;;8.20;100.00;100597.25;4908359;28;20053;-73
2022/01/03 07:11:33;;;;;;;52.08;7.53;;;;;;;8.11;100.00;100606.53;4920229;28;20039;-73
2022/01/03 07:19:26;;;;;;;;;;;;;;;8.17;100.00;100604.88;4913532;28;20060;-72
2022/01/03 07:21:52;;;;;;;51.17;6.72;;;;;;;8.23;100.00;100617.50;4924384;28;20286;-73
2022/01/03 07:24:17;;;;;;;52.95;7.05;;;;;;;8.30;100.00;100621.84;4906598;28;20503;-74
2022/01/03 07:26:42;;;;;;;37.78;5.88;;;;;;;8.30;100.00;100621.84;4923610;28;20125;-74
2022/01/03 07:29:08;;;;;;;43.28;7.10;;;;;;;8.34;100.00;100639.19;4921963;28;20041;-74
2022/01/03 07:31:34;;;;;;;53.22;8.38;;;;;;;8.35;100.00;100640.88;4911661;28;20062;-74
2022/01/03 07:33:59;;;;;;;56.47;7.85;;;;;;;8.40;100.00;100636.78;4924150;28;20042;-74
2022/01/03 07:36:24;;;;;;;60.35;7.55;;;;;;;8.45;100.00;100634.28;4907243;28;20062;-74
2022/01/03 07:38:50;;;;;;;43.13;6.50;;;;;;;8.46;100.00;100635.94;4908175;28;20042;-74
2022/01/03 07:41:16;;;;;;;41.10;8.75;;;;;;;8.50;100.00;100629.97;4919788;28;20049;-74
2022/01/03 07:43:43;;;;;;;48.30;7.43;;;;;;;8.53;100.00;100637.63;4884143;28;20368;-75
2022/01/03 07:46:08;;;;;;;41.88;7.28;;;;;;;8.52;100.00;100627.88;4924790;28;20035;-76
2022/01/03 07:48:34;;;;;;;54.25;7.78;;;;;;;8.56;100.00;100636.38;4911001;28;22509;-74
2022/01/03 07:50:59;;;;;;;52.38;7.38;;;;;;;8.52;100.00;100629.75;4922796;28;22634;-73
2022/01/03 07:53:25;;;;;;;40.28;6.07;;;;;;;8.57;100.00;100633.50;4920442;28;24151;-73
2022/01/03 07:55:50;;;;;;;42.80;7.38;;;;;;;8.59;100.00;100642.16;4914101;28;20043;-73
2022/01/03 07:58:16;;;;;;;45.47;8.30;;;;;;;8.60;100.00;100648.38;4922398;28;20046;-74
2022/01/03 08:00:43;;;;;;;49.72;8.10;;;;;;;8.55;100.00;100640.09;4908428;28;20101;-74
2022/01/03 08:03:09;;;;;;;51.17;7.20;;;;;;;8.51;100.00;100638.84;4922819;28;20039;-76
2022/01/03 08:05:34;;;;;;;44.45;6.43;;;;;;;8.56;100.00;100647.09;4917366;28;20054;-74
2022/01/03 08:08:00;;;;;;;48.13;6.03;;;;;;;8.60;100.00;100643.00;4889930;28;20051;-73
2022/01/03 08:10:25;;;;;;;51.30;7.38;;;;;;;8.59;100.00;100655.56;4922045;28;20043;-75
2022/01/03 08:12:51;;;;;;;41.60;6.47;;;;;;;8.63;100.00;100642.56;4905896;28;20059;-76
2022/01/03 08:15:16;;;;;;;53.45;7.68;;;;;;;8.60;100.00;100640.31;4921529;28;20383;-74
2022/01/03 08:17:44;;;;;;;46.72;6.95;;;;;;;8.58;100.00;100639.69;4917938;28;20073;-74
2022/01/03 08:20:10;;;;;;;42.97;6.40;;;;;;;8.59;100.00;100635.97;4913024;28;20057;-74
2022/01/03 08:22:36;;;;;;;42.97;7.18;;;;;;;8.62;100.00;100635.56;4921433;28;20070;-75
2022/01/03 08:25:01;;;;;;;53.95;7.45;;;;;;;8.69;100.00;100636.38;4916878;28;20030;-76
2022/01/03 08:27:26;;;;;;;41.90;6.88;;;;;;;8.78;100.00;100635.16;4922785;28;20035;-76
2022/01/03 08:29:52;;;;;;;43.08;7.10;;;;;;;8.89;100.00;100638.25;4918832;28;20053;-76
2022/01/03 08:32:17;;;;;;;50.17;7.18;;;;;;;8.93;100.00;100623.38;4928279;28;20047;-76
2022/01/03 08:34:43;;;;;;;50.03;7.45;;;;;;;8.94;100.00;100633.91;4921884;28;20069;-75
2022/01/03 08:37:08;;;;;;;47.08;6.15;;;;;;;8.96;100.00;100647.16;4907746;28;20545;-76
2022/01/03 08:39:34;;;;;;;41.83;7.15;;;;;;;8.97;100.00;100646.94;4939719;28;20050;-75
2022/01/03 08:41:59;;;;;;;41.72;6.47;;;;;;;9.02;100.00;100639.09;4914094;28;20059;-76
2022/01/03 08:44:24;;;;;;;48.72;7.57;;;;;;;9.07;100.00;100643.84;4923550;28;20067;-77
2022/01/03 08:46:51;;;;;;;54.90;7.00;;;;;;;9.04;100.00;100638.88;4929540;28;20034;-76
2022/01/03 08:49:17;;;;;;;59.67;9.32;;;;;;;9.04;100.00;100639.69;4913145;28;20051;-77
2022/01/03 08:51:42;;;;;;;35.03;5.43;;;;;;;9.02;100.00;100641.78;4925595;28;20130;-75
2022/01/03 08:54:08;;;;;;;44.60;6.95;;;;;;;9.13;100.00;100643.00;4905955;28;20038;-76
2022/01/03 08:56:33;;;;;;;49.15;6.93;;;;;;;9.19;100.00;100641.31;4927778;28;20035;-75
2022/01/03 08:58:58;;;;;;;45.88;6.95;;;;;;;9.20;100.00;100638.44;4925408;28;20343;-73
2022/01/03 09:01:24;;;;;;;40.35;6.70;;;;;;;9.21;100.00;100640.09;4923706;28;20039;-76
2022/01/03 09:03:50;;;;;;;35.83;6.30;;;;;;;9.23;100.00;100632.66;4927251;28;20034;-76
2022/01/03 09:06:19;;;;;;;44.75;6.53;;;;;;;9.28;100.00;100643.59;4896722;28;20081;-75
2022/01/03 09:08:45;;;;;;;37.33;7.57;;;;;;;9.28;100.00;100630.16;4928089;28;20043;-77
2022/01/03 09:11:11;;;;;;;38.65;6.47;;;;;;;9.36;100.00;100630.97;4926917;28;20058;-76
2022/01/03 09:13:37;;;;;;;56.30;6.55;;;;;;;9.33;100.00;100626.84;4914923;28;20068;-76
2022/01/03 09:16:07;;;;;;;38.25;5.97;;;;;;;9.45;100.00;100629.72;4943104;28;20035;-74
2022/01/03 09:18:34;;;;;;;30.80;5.70;;;;;;;9.44;100.00;100638.81;4915565;28;20131;-74
2022/01/03 09:20:59;;;;;;;45.28;7.38;;;;;;;9.47;100.00;100633.00;4929107;28;20042;-76
2022/01/03 09:23:30;;;;;;;38.50;6.38;;;;;;;9.50;100.00;100621.84;4931369;28;20173;-76
2022/01/03 09:28:49;;;;;;;38.78;6.75;;;;;;;9.60;100.00;100627.59;4968340;28;20617;-76
2022/01/03 09:31:16;;;;;;;44.13;7.07;;;;;;;9.66;100.00;100634.00;4929435;28;20063;-76
2022/01/03 09:33:41;;;;;;;35.75;6.63;;;;;;;9.60;100.00;100622.22;4958231;28;20058;-75
2022/01/03 09:36:07;;;;;;;34.95;6.30;;;;;;;9.63;100.00;100624.50;4911385;28;20499;-75
2022/01/03 09:38:34;;;;;;;38.03;5.30;;;;;;;9.68;100.00;100623.84;4925647;28;20038;-75
2022/01/03 09:41:03;;;;;;;35.78;5.70;;;;;;;9.70;100.00;100627.97;4934314;28;20050;-76
2022/01/03 09:43:46;;;;;;;41.95;7.47;;;;;;;9.69;100.00;100626.34;4919400;28;20054;-76
2022/01/03 09:46:14;;;;;;;42.97;6.38;;;;;;;9.73;100.00;100626.75;4947267;28;20097;-76
2022/01/03 09:48:42;;;;;;;30.17;5.75;;;;;;;9.84;100.00;100627.94;4920792;28;20070;-76
2022/01/03 09:51:11;;;;;;;36.22;6.43;;;;;;;9.89;100.00;100618.16;4924287;28;20427;-76
2022/01/03 09:53:38;;;;;;;38.03;5.80;;;;;;;9.91;100.00;100613.41;4908972;28;20030;-77
2022/01/03 09:56:04;;;;;;;41.53;6.03;;;;;;;9.84;100.00;100603.72;4893304;28;20226;-75
2022/01/03 09:58:31;;;;;;;35.00;6.90;;;;;;;9.95;100.00;100608.44;4928378;28;20027;-76
2022/01/03 10:00:56;;;;;;;40.17;5.85;;;;;;;10.06;100.00;100620.38;4912352;28;20057;-76
2022/01/03 10:03:22;;;;;;;39.58;7.20;;;;;;;10.14;100.00;100626.31;4911153;28;20038;-75
2022/01/03 10:05:47;;;;;;;31.98;5.53;;;;;;;10.30;100.00;100608.06;4925460;28;23652;-75
2022/01/03 10:08:12;;;;;;;31.20;5.72;;;;;;;10.39;100.00;100630.97;4915417;28;20062;-76
2022/01/03 10:10:38;;;;;;;38.20;6.57;;;;;;;10.47;100.00;100628.88;4927275;28;20050;-75
2022/01/03 10:13:03;;;;;;;42.25;6.65;;;;;;;10.32;100.00;100625.66;4912144;28;20043;-76
2022/01/03 10:15:29;;;;;;;33.83;6.60;;;;;;;10.29;100.00;100633.34;4908919;28;20038;-76
2022/01/03 10:17:55;;;;;;;32.97;5.70;;;;;;;10.27;100.00;100620.91;4923265;28;20063;-76
2022/01/03 10:20:20;;;;;;;35.78;5.70;;;;;;;10.28;100.00;100619.03;4927880;28;20082;-76
2022/01/03 10:22:46;;;;;;;45.53;6.22;;;;;;;10.29;100.00;100617.19;4924749;28;20081;-76
2022/01/03 10:25:14;;;;;;;42.95;6.70;;;;;;;10.43;100.00;100610.69;4908028;28;20140;-75
2022/01/03 10:27:44;;;;;;;34.17;6.20;;;;;;;10.44;100.00;100606.94;4925974;28;20058;-75
2022/01/03 10:30:10;;;;;;;33.13;5.20;;;;;;;10.48;100.00;100613.53;4901788;28;20058;-76
2022/01/03 10:32:36;;;;;;;38.00;5.93;;;;;;;10.51;100.00;100607.72;4917648;28;20074;-74
2022/01/03 10:35:16;;;;;;;33.00;5.05;;;;;;;10.59;100.00;100603.94;4926616;28;20085;-75
2022/01/03 10:37:42;;;;;;;39.83;7.47;;;;;;;10.50;100.00;100614.97;4908464;28;20150;-76
2022/01/03 10:40:27;;;;;;;32.50;5.57;;;;;;;10.41;100.00;100610.88;4910187;28;20027;-75
2022/01/03 10:42:54;;;;;;;36.25;6.30;;;;;;;10.37;100.00;100622.31;4894794;28;20055;-73
2022/01/03 10:45:30;;;;;;;36.08;6.22;;;;;;;10.59;100.00;100610.13;4910282;28;20027;-75
2022/01/03 10:47:56;;;;;;;33.80;6.00;;;;;;;10.73;100.00;100603.59;4925005;28;20069;-75
2022/01/03 10:50:22;;;;;;;27.92;4.90;;;;;;;10.94;100.00;100602.38;4909745;28;20069;-75
2022/01/03 10:52:49;;;;;;;31.98;5.75;;;;;;;11.12;100.00;100612.38;4924268;28;20494;-76
2022/01/03 10:55:19;;;;;;;30.17;7.07;;;;;;;10.81;100.00;100612.44;4926692;28;20051;-74
2022/01/03 10:57:46;;;;;;;33.47;6.05;;;;;;;10.68;100.00;100599.94;4926051;28;20027;-73
2022/01/03 11:00:16;;;;;;;34.22;5.95;;;;;;;10.59;100.00;100604.75;4922048;28;20045;-75
2022/01/03 11:03:19;;;;;;;33.95;6.15;;;;;;;10.33;100.00;100599.56;4914488;28;20055;-75
2022/01/03 11:05:50;;;;;;;30.75;5.32;;;;;;;10.27;100.00;100607.44;4925493;28;20121;-74
2022/01/03 11:11:00;;;;;;;44.92;5.80;;;;;;;10.19;100.00;100591.53;4925028;28;20035;-76
2022/01/03 11:13:26;;;;;;;32.72;5.75;;;;;;;10.16;100.00;100578.50;4911900;28;20066;-74
2022/01/03 11:15:56;;;;;;;43.65;6.05;;;;;;;10.24;100.00;100589.00;4925618;28;20909;-74
2022/01/03 11:18:26;;;;;;;37.72;6.13;;;;;;;10.26;100.00;100584.28;4917084;28;20027;-75
2022/01/03 11:21:13;;;;;;;33.53;6.05;;;;;;;10.37;100.00;100546.94;4914736;28;20051;-75
2022/01/03 11:23:40;;;;;;;35.28;5.80;;;;;;;10.38;100.00;100570.09;4925692;28;20027;-75
2022/01/03 11:26:08;;;;;;;45.85;6.65;;;;;;;10.37;100.00;100580.06;4908200;28;23625;-74
2022/01/03 11:28:34;;;;;;;41.50;5.80;;;;;;;10.44;100.00;100580.00;4925828;28;20034;-74
2022/01/03 11:31:01;;;;;;;33.72;6.22;;;;;;;10.54;100.00;100572.28;4910817;28;20145;-74
2022/01/03 11:33:27;;;;;;;33.70;6.28;;;;;;;10.60;100.00;100563.31;4925911;28;20495;-73